Time;durP1;ratioP1;P1;durP2;ratioP2;P2;SDS_P1;SDS_P2;PMS_P1;PMS_P2;Temp;Humidity;BMP_temperature;BMP_pressure;BME280_temperature;BME280_humidity;BME280_pressure;Samples;Min_cycle;Max_cycle;Signal;HPM_P1;HPM_P2
2023/02/18 00:01:23;;;;;;;24.23;16.38;;;11.20;99.90;;;;;;5062893;28;20029;-44
2023/02/18 00:03:50;;;;;;;24.73;16.38;;;11.10;99.90;;;;;;5060553;28;20749;-44
2023/02/18 00:06:35;;;;;;;26.08;17.98;;;11.20;99.90;;;;;;5061789;28;20049;-45
2023/02/18 00:09:01;;;;;;;30.38;19.48;;;11.10;99.90;;;;;;5061583;28;20419;-44
2023/02/18 00:11:29;;;;;;;33.13;19.40;;;11.10;99.90;;;;;;5061468;28;20067;-43
2023/02/18 00:13:56;;;;;;;34.35;19.25;;;11.10;99.90;;;;;;5061381;28;20028;-44
2023/02/18 00:16:24;;;;;;;35.20;20.80;;;11.10;99.90;;;;;;5062632;28;20769;-43
2023/02/18 00:18:53;;;;;;;32.33;19.40;;;11.00;99.90;;;;;;5059533;28;20024;-43
2023/02/18 00:21:18;;;;;;;30.35;18.85;;;11.00;99.90;;;;;;5050654;28;20638;-43
2023/02/18 00:23:44;;;;;;;38.88;21.80;;;11.00;99.90;;;;;;5061253;28;20031;-43
2023/02/18 00:26:12;;;;;;;38.95;20.73;;;11.00;99.90;;;;;;5060387;28;20440;-45
2023/02/18 00:28:38;;;;;;;37.25;21.40;;;11.00;99.90;;;;;;5061975;28;20238;-44
2023/02/18 00:31:07;;;;;;;40.13;22.73;;;10.90;99.90;;;;;;5059682;28;20544;-44
2023/02/18 00:33:35;;;;;;;35.95;21.30;;;10.90;99.90;;;;;;5061057;28;20032;-44
2023/02/18 00:36:07;;;;;;;43.80;24.65;;;10.90;99.90;;;;;;5061182;28;20032;-44
2023/02/18 00:38:33;;;;;;;39.95;23.70;;;10.90;99.90;;;;;;5061228;28;20487;-44
2023/02/18 00:41:01;;;;;;;42.53;21.90;;;10.80;99.90;;;;;;5059690;28;20036;-44
2023/02/18 00:43:27;;;;;;;36.47;21.73;;;10.80;99.90;;;;;;5061306;28;20032;-44
2023/02/18 00:45:53;;;;;;;37.42;20.27;;;10.80;99.90;;;;;;5060059;28;20486;-44
2023/02/18 00:48:19;;;;;;;38.95;20.75;;;10.80;99.90;;;;;;5061395;28;20032;-44
2023/02/18 00:50:45;;;;;;;35.05;21.25;;;10.80;99.90;;;;;;5060068;28;20079;-44
2023/02/18 00:53:14;;;;;;;36.63;21.17;;;10.80;99.90;;;;;;5060338;28;20028;-45
2023/02/18 00:55:43;;;;;;;39.08;22.58;;;10.80;99.90;;;;;;5060688;28;20696;-44
2023/02/18 00:58:10;;;;;;;41.45;22.95;;;10.80;99.90;;;;;;5060825;28;20043;-44
2023/02/18 01:00:39;;;;;;;38.55;23.40;;;10.90;99.90;;;;;;5060171;28;20032;-44
2023/02/18 01:03:08;;;;;;;39.60;22.95;;;10.80;99.90;;;;;;5061352;28;20152;-44
2023/02/18 01:05:35;;;;;;;36.78;22.08;;;10.80;99.90;;;;;;5060495;28;20486;-44
2023/02/18 01:08:00;;;;;;;36.80;21.77;;;10.80;99.90;;;;;;5059445;28;20020;-43
2023/02/18 01:10:29;;;;;;;34.35;20.08;;;10.80;99.90;;;;;;5061156;28;20043;-43
2023/02/18 01:12:54;;;;;;;32.38;19.20;;;10.80;99.90;;;;;;5060185;28;20044;-43
2023/02/18 01:15:21;;;;;;;36.55;20.83;;;10.80;99.90;;;;;;5060044;28;20024;-44
2023/02/18 01:17:46;;;;;;;32.97;20.05;;;10.80;99.90;;;;;;5057113;28;20901;-44
2023/02/18 01:20:13;;;;;;;34.47;20.02;;;10.80;99.90;;;;;;5060072;28;20108;-44
2023/02/18 01:22:39;;;;;;;32.63;20.58;;;10.80;99.90;;;;;;5060163;28;20064;-44
2023/02/18 01:25:05;;;;;;;30.75;18.38;;;10.80;99.90;;;;;;5060556;28;20140;-44
2023/02/18 01:27:34;;;;;;;31.77;19.83;;;10.80;99.90;;;;;;5060769;28;20020;-43
2023/02/18 01:29:59;;;;;;;36.75;20.00;;;10.80;99.90;;;;;;5060324;28;20031;-44
2023/02/18 01:32:25;;;;;;;30.00;18.27;;;10.80;99.90;;;;;;5060561;28;20037;-43
2023/02/18 01:34:50;;;;;;;30.23;18.48;;;10.80;99.90;;;;;;5058999;28;20468;-44
2023/02/18 01:37:16;;;;;;;33.22;19.92;;;10.80;99.90;;;;;;5060194;28;20086;-44
2023/02/18 01:39:41;;;;;;;30.85;19.30;;;10.80;99.90;;;;;;5060659;28;20024;-44
2023/02/18 01:42:17;;;;;;;27.77;18.50;;;10.80;99.90;;;;;;5059156;28;20104;-44
2023/02/18 01:44:45;;;;;;;26.83;17.60;;;10.80;99.90;;;;;;5060222;28;20051;-44
2023/02/18 01:47:10;;;;;;;29.90;18.98;;;10.90;99.90;;;;;;5059588;28;20411;-44
2023/02/18 01:49:36;;;;;;;28.98;19.45;;;10.80;99.90;;;;;;5059375;28;20025;-44
2023/02/18 01:52:06;;;;;;;30.55;19.65;;;10.90;99.90;;;;;;5059231;28;20028;-44
2023/02/18 01:54:36;;;;;;;29.38;19.38;;;10.90;99.90;;;;;;5060291;28;20024;-44
2023/02/18 01:57:09;;;;;;;36.35;22.40;;;10.90;99.90;;;;;;5058635;28;20020;-44
2023/02/18 01:59:47;;;;;;;32.90;21.58;;;10.90;99.90;;;;;;5060279;28;20023;-44
2023/02/18 02:02:19;;;;;;;34.70;23.20;;;10.90;99.90;;;;;;5060416;28;20017;-44
2023/02/18 02:04:44;;;;;;;30.00;20.30;;;10.90;99.90;;;;;;5059582;28;20049;-43
2023/02/18 02:07:14;;;;;;;34.50;21.80;;;10.80;99.90;;;;;;5059790;28;20039;-43
2023/02/18 02:09:41;;;;;;;37.97;20.80;;;10.80;99.90;;;;;;5060190;28;20055;-44
2023/02/18 02:12:10;;;;;;;34.35;20.80;;;10.80;99.90;;;;;;5059424;28;20036;-43
2023/02/18 02:15:01;;;;;;;33.25;20.05;;;10.90;99.90;;;;;;5060240;28;20055;-44
2023/02/18 02:17:32;;;;;;;33.28;20.98;;;10.90;99.90;;;;;;5059736;28;20059;-44
2023/02/18 02:20:03;;;;;;;31.98;20.58;;;10.90;99.90;;;;;;5058031;28;20078;-43
2023/02/18 02:23:06;;;;;;;34.72;21.30;;;10.80;99.90;;;;;;5059957;28;20058;-44
2023/02/18 02:25:50;;;;;;;29.33;19.67;;;10.90;99.90;;;;;;5049190;28;20028;-43
2023/02/18 02:28:43;;;;;;;32.47;20.50;;;10.90;99.90;;;;;;5060536;28;20024;-43
2023/02/18 02:31:26;;;;;;;36.28;20.38;;;10.90;99.90;;;;;;5059633;28;20044;-43
2023/02/18 02:34:40;;;;;;;30.63;18.67;;;10.90;99.90;;;;;;5060347;28;20032;-43
2023/02/18 02:37:26;;;;;;;;;;;10.90;99.90;;;;;;5043209;28;20148;-44
2023/02/18 02:40:13;;;;;;;37.80;22.02;;;10.90;99.90;;;;;;5059459;28;19908;-44
2023/02/18 02:43:05;;;;;;;40.67;23.48;;;10.90;99.90;;;;;;5040020;28;20051;-43
2023/02/18 02:45:47;;;;;;;45.20;26.27;;;10.90;99.90;;;;;;5059228;28;20116;-43
2023/02/18 02:48:31;;;;;;;43.00;26.17;;;10.90;99.90;;;;;;5059740;28;20094;-41
2023/02/18 02:51:03;;;;;;;44.83;27.35;;;10.90;99.90;;;;;;5056523;28;20353;-42
2023/02/18 02:53:32;;;;;;;43.65;27.13;;;10.90;99.90;;;;;;5059671;28;20063;-43
2023/02/18 02:55:57;;;;;;;45.00;26.52;;;10.90;99.90;;;;;;5059060;28;20021;-42
2023/02/18 02:58:23;;;;;;;43.67;25.92;;;10.90;99.90;;;;;;5060222;28;20036;-43
2023/02/18 03:01:34;;;;;;;47.35;27.83;;;10.90;99.90;;;;;;5059103;28;20035;-43
2023/02/18 03:04:16;;;;;;;49.65;29.58;;;11.00;99.90;;;;;;5060096;28;20092;-43
2023/02/18 03:07:07;;;;;;;49.33;28.55;;;11.00;99.90;;;;;;5059756;28;20139;-44
2023/02/18 03:10:14;;;;;;;48.58;28.65;;;11.00;99.90;;;;;;5059726;28;20024;-42
2023/02/18 03:12:40;;;;;;;41.97;26.45;;;11.00;99.90;;;;;;5054475;28;20131;-43
2023/02/18 03:15:27;;;;;;;49.55;27.98;;;11.00;99.90;;;;;;5059225;28;20097;-43
2023/02/18 03:18:16;;;;;;;50.03;27.77;;;11.10;99.90;;;;;;5059616;28;20112;-43
2023/02/18 03:20:55;;;;;;;53.83;30.75;;;11.10;99.90;;;;;;5058862;28;20025;-44
2023/02/18 03:23:26;;;;;;;49.72;29.25;;;11.10;99.90;;;;;;5059567;28;20529;-43
2023/02/18 03:25:54;;;;;;;49.75;27.75;;;11.10;99.90;;;;;;5059943;28;20097;-43
2023/02/18 03:28:22;;;;;;;42.42;27.15;;;11.10;99.90;;;;;;5058975;28;20034;-43
2023/02/18 03:30:52;;;;;;;38.63;24.63;;;11.10;99.90;;;;;;5059110;28;20047;-43
2023/02/18 03:33:24;;;;;;;39.08;24.05;;;11.10;99.90;;;;;;5062702;28;20036;-43
2023/02/18 03:35:51;;;;;;;;;;;11.10;99.90;;;;;;5062348;28;20878;-43
2023/02/18 03:38:34;;;;;;;38.70;22.65;;;11.20;99.90;;;;;;5062786;28;19912;-43
2023/02/18 03:41:00;;;;;;;37.90;23.25;;;11.20;99.90;;;;;;5062157;28;20028;-43
2023/02/18 03:43:26;;;;;;;32.35;20.45;;;11.20;99.90;;;;;;5062949;28;20502;-43
2023/02/18 03:45:51;;;;;;;36.67;22.13;;;11.20;99.90;;;;;;5061699;28;20033;-43
2023/02/18 03:48:17;;;;;;;34.38;20.83;;;11.20;99.90;;;;;;5062766;28;20046;-43
2023/02/18 03:50:43;;;;;;;34.35;20.48;;;11.20;99.90;;;;;;5062485;28;20064;-43
2023/02/18 03:53:08;;;;;;;32.42;19.60;;;11.20;99.90;;;;;;5062076;28;20025;-42
2023/02/18 03:55:34;;;;;;;25.67;18.10;;;11.20;99.90;;;;;;5062096;28;20582;-42
2023/02/18 03:57:59;;;;;;;25.83;17.55;;;11.20;99.90;;;;;;5062227;28;20108;-42
2023/02/18 04:00:25;;;;;;;23.58;16.40;;;11.20;99.90;;;;;;5063125;28;20090;-43
2023/02/18 04:02:50;;;;;;;21.95;14.70;;;11.20;99.90;;;;;;5061758;28;20033;-43
2023/02/18 04:05:16;;;;;;;21.73;14.73;;;11.20;99.90;;;;;;5062147;28;20049;-43
2023/02/18 04:07:42;;;;;;;20.00;13.75;;;11.20;99.90;;;;;;5062541;28;20032;-42
2023/02/18 04:10:10;;;;;;;17.38;12.07;;;11.20;99.90;;;;;;5060732;28;20037;-43
2023/02/18 04:12:36;;;;;;;17.55;12.68;;;11.20;99.90;;;;;;5062253;28;20119;-42
2023/02/18 04:15:02;;;;;;;17.90;12.27;;;11.20;99.90;;;;;;5061965;28;20025;-43
2023/02/18 04:17:28;;;;;;;14.32;11.48;;;11.30;99.90;;;;;;5062395;28;20049;-43
2023/02/18 04:19:53;;;;;;;15.90;11.63;;;11.30;99.90;;;;;;5061725;28;20080;-43
2023/02/18 04:22:19;;;;;;;16.10;11.38;;;11.20;99.90;;;;;;5061469;28;20059;-42
2023/02/18 04:24:47;;;;;;;15.73;11.57;;;11.30;99.90;;;;;;5061163;28;20107;-42
2023/02/18 04:27:13;;;;;;;17.75;12.10;;;11.30;99.90;;;;;;5060612;28;20043;-42
2023/02/18 04:29:38;;;;;;;16.95;12.05;;;11.30;99.90;;;;;;5062056;28;20032;-43
2023/02/18 04:32:04;;;;;;;16.17;12.02;;;11.30;99.90;;;;;;5060974;28;20086;-43
2023/02/18 04:34:29;;;;;;;17.73;11.98;;;11.30;99.90;;;;;;5061970;28;20032;-42
2023/02/18 04:36:56;;;;;;;16.35;11.60;;;11.30;99.90;;;;;;5061552;28;20407;-43
2023/02/18 04:39:22;;;;;;;15.30;11.23;;;11.30;99.90;;;;;;5060323;28;20765;-43
2023/02/18 04:41:47;;;;;;;15.63;11.27;;;11.30;99.90;;;;;;5061431;28;20027;-44
2023/02/18 04:44:13;;;;;;;14.13;10.95;;;11.30;99.90;;;;;;5060377;28;20035;-43
2023/02/18 04:46:41;;;;;;;15.50;11.23;;;11.30;99.90;;;;;;5060509;28;20024;-44
2023/02/18 04:49:07;;;;;;;14.90;10.30;;;11.30;99.90;;;;;;5061315;28;20029;-43
2023/02/18 04:51:32;;;;;;;12.63;9.43;;;11.30;99.90;;;;;;5062054;28;20040;-44
2023/02/18 04:53:58;;;;;;;12.18;9.48;;;11.30;99.90;;;;;;5060311;28;20032;-43
2023/02/18 04:56:23;;;;;;;12.20;9.30;;;11.30;99.90;;;;;;5061113;28;20079;-43
2023/02/18 04:58:49;;;;;;;12.55;9.85;;;11.30;99.90;;;;;;5060501;28;20055;-43
2023/02/18 05:01:15;;;;;;;14.38;10.10;;;11.30;99.90;;;;;;5061528;28;20239;-43
2023/02/18 05:03:40;;;;;;;12.82;9.80;;;11.30;99.90;;;;;;5061611;28;20167;-44
2023/02/18 05:06:06;;;;;;;10.73;8.90;;;11.30;99.90;;;;;;5060309;28;20048;-43
2023/02/18 05:08:31;;;;;;;11.80;8.45;;;11.20;99.90;;;;;;5060925;28;20024;-43
2023/02/18 05:10:57;;;;;;;9.13;7.45;;;11.20;99.90;;;;;;5060676;28;20037;-44
2023/02/18 05:13:25;;;;;;;10.18;7.43;;;11.20;99.90;;;;;;5060302;28;20099;-43
2023/02/18 05:15:52;;;;;;;9.10;7.47;;;11.20;99.90;;;;;;5060022;28;20189;-43
2023/02/18 05:18:18;;;;;;;9.23;7.53;;;11.20;99.90;;;;;;5060857;28;20027;-44
2023/02/18 05:20:43;;;;;;;8.90;7.07;;;11.20;99.90;;;;;;5059996;28;20024;-41
2023/02/18 05:23:09;;;;;;;8.80;7.38;;;11.20;99.90;;;;;;5060236;28;20028;-42
2023/02/18 05:25:34;;;;;;;9.65;7.60;;;11.20;99.90;;;;;;5060532;28;20751;-43
2023/02/18 05:28:00;;;;;;;8.15;6.57;;;11.20;99.90;;;;;;5060064;28;20519;-42
2023/02/18 05:30:29;;;;;;;6.95;5.63;;;11.20;99.90;;;;;;5059944;28;20047;-43
2023/02/18 05:32:57;;;;;;;6.20;5.60;;;11.20;99.90;;;;;;5060432;28;20054;-43
2023/02/18 05:35:23;;;;;;;6.18;5.40;;;11.20;99.90;;;;;;5059080;28;20035;-42
2023/02/18 05:37:48;;;;;;;5.72;4.60;;;11.10;99.90;;;;;;5059670;28;20036;-43
2023/02/18 05:40:14;;;;;;;5.20;4.70;;;11.20;99.90;;;;;;5060145;28;20025;-42
2023/02/18 05:42:39;;;;;;;5.82;4.50;;;11.10;99.90;;;;;;5059646;28;20466;-42
2023/02/18 05:45:05;;;;;;;4.70;4.28;;;11.20;99.90;;;;;;5059647;28;20555;-42
2023/02/18 05:47:30;;;;;;;5.07;4.57;;;11.10;99.90;;;;;;5059783;28;20462;-42
2023/02/18 05:49:56;;;;;;;4.55;3.83;;;11.10;99.90;;;;;;5058863;28;20026;-43
2023/02/18 05:52:22;;;;;;;4.38;3.97;;;11.10;99.90;;;;;;5060332;28;20829;-43
2023/02/18 05:54:50;;;;;;;4.75;4.25;;;11.10;99.90;;;;;;5058942;28;20040;-42
2023/02/18 05:57:15;;;;;;;4.72;4.22;;;11.10;99.90;;;;;;5059028;28;20027;-43
2023/02/18 05:59:41;;;;;;;4.40;3.75;;;11.10;99.90;;;;;;5059957;28;20024;-42
2023/02/18 06:02:07;;;;;;;4.30;3.90;;;11.10;99.90;;;;;;5058884;28;20106;-42
2023/02/18 06:04:32;;;;;;;4.65;4.10;;;11.10;99.90;;;;;;5060097;28;20048;-42
2023/02/18 06:06:58;;;;;;;4.20;3.72;;;11.00;99.90;;;;;;5059421;28;20072;-43
2023/02/18 06:09:24;;;;;;;4.28;3.85;;;11.00;99.90;;;;;;5059702;28;20148;-43
2023/02/18 06:11:49;;;;;;;3.95;3.55;;;11.00;99.90;;;;;;5059527;28;20146;-42
2023/02/18 06:14:15;;;;;;;4.05;3.53;;;11.00;99.90;;;;;;5059241;28;20032;-42
2023/02/18 06:16:41;;;;;;;3.47;3.17;;;11.00;99.90;;;;;;5059404;28;20101;-43
2023/02/18 06:19:06;;;;;;;4.13;3.72;;;10.90;99.90;;;;;;5059884;28;20032;-43
2023/02/18 06:21:35;;;;;;;5.10;4.60;;;11.00;99.90;;;;;;5060088;28;20024;-42
2023/02/18 06:24:00;;;;;;;5.65;5.07;;;10.90;99.90;;;;;;5059071;28;20107;-42
2023/02/18 06:26:26;;;;;;;5.32;4.82;;;10.90;99.90;;;;;;5059148;28;20028;-43
2023/02/18 06:28:54;;;;;;;5.85;5.18;;;11.00;99.90;;;;;;5059389;28;20746;-43
2023/02/18 06:31:21;;;;;;;6.50;5.60;;;10.90;99.90;;;;;;5058841;28;20040;-42
2023/02/18 06:33:46;;;;;;;6.88;6.18;;;10.90;99.90;;;;;;5048406;28;20024;-42
2023/02/18 06:36:13;;;;;;;6.85;6.15;;;10.90;99.90;;;;;;5059213;28;20380;-42
2023/02/18 06:38:40;;;;;;;7.28;6.20;;;10.90;99.90;;;;;;5059084;28;20020;-42
2023/02/18 06:41:06;;;;;;;6.97;6.28;;;10.90;99.90;;;;;;5059252;28;20025;-42
2023/02/18 06:43:31;;;;;;;6.95;6.25;;;10.90;99.90;;;;;;5059103;28;20028;-43
2023/02/18 06:45:57;;;;;;;6.43;5.82;;;10.90;99.90;;;;;;5059140;28;20086;-42
2023/02/18 06:48:23;;;;;;;7.78;6.70;;;10.90;99.90;;;;;;5059414;28;20063;-43
2023/02/18 06:50:49;;;;;;;7.63;6.82;;;10.90;99.90;;;;;;5059579;28;20060;-44
2023/02/18 06:53:16;;;;;;;6.78;6.10;;;10.90;99.90;;;;;;5058976;28;20127;-43
2023/02/18 06:55:42;;;;;;;7.25;6.22;;;10.90;99.90;;;;;;5059792;28;20106;-44
2023/02/18 06:58:09;;;;;;;7.47;6.50;;;10.90;99.90;;;;;;5059407;28;20039;-45
2023/02/18 07:00:35;;;;;;;7.43;6.30;;;10.90;99.90;;;;;;5058543;28;20748;-43
2023/02/18 07:03:01;;;;;;;7.07;6.35;;;10.90;99.90;;;;;;5059340;28;20024;-42
2023/02/18 07:05:27;;;;;;;6.43;5.72;;;10.90;99.90;;;;;;5059228;28;20059;-43
2023/02/18 07:07:52;;;;;;;7.28;6.22;;;10.90;99.90;;;;;;5062099;28;20422;-43
2023/02/18 07:10:21;;;;;;;6.40;5.72;;;10.90;99.90;;;;;;5063287;28;20025;-43
2023/02/18 07:12:47;;;;;;;6.80;5.90;;;10.90;99.90;;;;;;5062561;28;20037;-43
2023/02/18 07:15:13;;;;;;;6.70;5.97;;;10.80;99.90;;;;;;5062197;28;20401;-43
2023/02/18 07:17:38;;;;;;;6.95;6.07;;;10.80;99.90;;;;;;5062478;28;20044;-42
2023/02/18 07:20:08;;;;;;;7.10;6.30;;;10.80;99.90;;;;;;5062226;28;20016;-43
2023/02/18 07:22:34;;;;;;;8.48;6.60;;;10.80;99.90;;;;;;5062528;28;20138;-43
2023/02/18 07:25:03;;;;;;;9.55;6.63;;;10.80;99.90;;;;;;5062087;28;20059;-43
2023/02/18 07:27:28;;;;;;;7.47;6.03;;;10.80;99.90;;;;;;5062016;28;20086;-43
2023/02/18 07:29:54;;;;;;;10.13;7.10;;;10.80;99.90;;;;;;5062635;28;20036;-42
2023/02/18 07:32:20;;;;;;;10.23;7.05;;;10.80;99.90;;;;;;5062290;28;20058;-42
2023/02/18 07:34:45;;;;;;;11.20;6.90;;;10.80;99.90;;;;;;5061419;28;20025;-42
2023/02/18 07:37:11;;;;;;;7.82;6.55;;;10.80;99.90;;;;;;5062029;28;20032;-42
2023/02/18 07:39:43;;;;;;;7.90;5.75;;;10.80;99.90;;;;;;5062033;28;20037;-42
2023/02/18 07:42:10;;;;;;;7.95;5.90;;;10.80;99.90;;;;;;5061818;28;20025;-46
2023/02/18 07:44:37;;;;;;;6.88;6.00;;;10.80;99.90;;;;;;5062145;28;20116;-43
2023/02/18 07:47:04;;;;;;;8.75;5.78;;;10.80;99.90;;;;;;5062094;28;20020;-43
2023/02/18 07:49:33;;;;;;;10.45;6.22;;;10.80;99.90;;;;;;5061426;28;20075;-43
2023/02/18 07:51:58;;;;;;;11.23;6.32;;;10.80;99.90;;;;;;5062674;28;20691;-43
2023/02/18 07:54:24;;;;;;;7.53;5.82;;;10.80;99.90;;;;;;5061884;28;20020;-43
2023/02/18 07:56:53;;;;;;;11.80;6.35;;;10.80;99.90;;;;;;5061145;28;20081;-43
2023/02/18 07:59:19;;;;;;;11.52;6.78;;;10.80;99.90;;;;;;5062413;28;20027;-42
2023/02/18 08:01:45;;;;;;;8.98;5.93;;;10.70;99.90;;;;;;5061188;28;20024;-44
2023/02/18 08:04:11;;;;;;;11.35;6.20;;;10.70;99.90;;;;;;5061448;28;20164;-43
2023/02/18 08:06:39;;;;;;;11.70;5.32;;;10.70;99.90;;;;;;5062374;28;20154;-42
2023/02/18 08:09:05;;;;;;;12.27;5.47;;;10.70;99.90;;;;;;5061350;28;20082;-43
2023/02/18 08:11:34;;;;;;;11.32;5.40;;;10.70;99.90;;;;;;5062631;28;20044;-43
2023/02/18 08:14:00;;;;;;;14.32;5.22;;;10.70;99.90;;;;;;5062386;28;20051;-43
2023/02/18 08:16:26;;;;;;;11.90;4.72;;;10.70;99.90;;;;;;5061701;28;20107;-43
2023/02/18 08:18:54;;;;;;;12.93;5.03;;;10.70;99.90;;;;;;5060738;28;20103;-43
2023/02/18 08:21:24;;;;;;;12.95;4.70;;;10.70;99.90;;;;;;5062166;28;20032;-43
2023/02/18 08:23:50;;;;;;;12.35;4.10;;;10.70;99.90;;;;;;5041598;28;20724;-43
2023/02/18 08:26:17;;;;;;;11.68;3.55;;;10.70;99.90;;;;;;5055928;28;20538;-43
2023/02/18 08:28:44;;;;;;;10.73;4.07;;;10.70;99.90;;;;;;5062195;28;20103;-43
2023/02/18 08:31:29;;;;;;;13.30;4.05;;;10.70;99.90;;;;;;5061467;28;20392;-43
2023/02/18 08:33:56;;;;;;;11.98;3.88;;;10.70;99.90;;;;;;5061552;28;20033;-43
2023/02/18 08:36:25;;;;;;;13.10;4.38;;;10.70;99.90;;;;;;5061249;28;20028;-43
2023/02/18 08:38:50;;;;;;;12.82;4.18;;;10.60;99.90;;;;;;5060606;28;20027;-43
2023/02/18 08:41:19;;;;;;;12.90;4.20;;;10.60;99.90;;;;;;5061217;28;20020;-44
2023/02/18 08:43:46;;;;;;;16.25;5.32;;;10.60;99.90;;;;;;5061223;28;20031;-43
2023/02/18 08:46:12;;;;;;;13.40;4.13;;;10.60;99.90;;;;;;5061187;28;20032;-43
2023/02/18 08:48:38;;;;;;;13.30;4.20;;;10.50;99.90;;;;;;5061215;28;20024;-43
2023/02/18 08:51:21;;;;;;;8.93;3.47;;;10.50;99.90;;;;;;5059907;28;20139;-45
2023/02/18 08:53:46;;;;;;;16.35;3.88;;;10.50;99.90;;;;;;5061715;28;20024;-42
2023/02/18 08:56:13;;;;;;;15.57;3.70;;;10.50;99.90;;;;;;5061463;28;20031;-43
2023/02/18 08:58:39;;;;;;;15.15;3.13;;;10.50;99.90;;;;;;5049847;28;20067;-43
2023/02/18 09:01:08;;;;;;;13.90;3.45;;;10.50;99.90;;;;;;5060691;28;20024;-43
2023/02/18 09:03:34;;;;;;;11.45;3.00;;;10.50;99.90;;;;;;5061141;28;20017;-43
2023/02/18 09:06:00;;;;;;;10.32;3.00;;;10.50;99.90;;;;;;5059950;28;20090;-43
2023/02/18 09:08:26;;;;;;;11.23;2.80;;;10.50;99.90;;;;;;5060589;28;20099;-43
2023/02/18 09:10:56;;;;;;;11.70;3.15;;;10.50;99.90;;;;;;5060767;28;20040;-43
2023/02/18 09:13:22;;;;;;;11.18;2.50;;;10.40;99.90;;;;;;5059673;28;20912;-43
2023/02/18 09:15:56;;;;;;;9.32;2.22;;;10.40;99.90;;;;;;5060601;28;20040;-43
2023/02/18 09:18:21;;;;;;;11.15;2.65;;;10.40;99.90;;;;;;5060299;28;20035;-42
2023/02/18 09:20:47;;;;;;;10.85;2.20;;;10.30;99.90;;;;;;5059874;28;20029;-43
2023/02/18 09:23:14;;;;;;;7.25;2.25;;;10.30;99.90;;;;;;5060965;28;20131;-43
2023/02/18 09:25:40;;;;;;;11.75;2.40;;;10.20;99.90;;;;;;5060533;28;20113;-42
2023/02/18 09:28:05;;;;;;;9.68;2.22;;;10.20;99.90;;;;;;5059733;28;20032;-44
2023/02/18 09:30:35;;;;;;;10.63;2.92;;;10.20;99.90;;;;;;5060547;28;20063;-42
2023/02/18 09:33:01;;;;;;;10.48;2.05;;;10.20;99.90;;;;;;5059785;28;20032;-43
2023/02/18 09:35:26;;;;;;;9.57;3.30;;;10.20;99.90;;;;;;5060751;28;20024;-43
2023/02/18 09:37:52;;;;;;;8.13;3.10;;;10.20;99.90;;;;;;5059950;28;20024;-42
2023/02/18 09:40:26;;;;;;;8.50;2.60;;;10.20;99.90;;;;;;5059785;28;20025;-43
2023/02/18 09:42:54;;;;;;;10.40;3.00;;;10.20;99.90;;;;;;5059545;28;20377;-44
2023/02/18 09:45:20;;;;;;;10.32;3.33;;;10.20;99.90;;;;;;5060353;28;20188;-43
2023/02/18 09:47:46;;;;;;;11.05;3.20;;;10.30;99.90;;;;;;5059907;28;20130;-43
2023/02/18 09:50:24;;;;;;;13.52;3.65;;;10.30;99.90;;;;;;5060287;28;20031;-43
2023/02/18 09:52:50;;;;;;;13.27;3.13;;;10.30;99.90;;;;;;5059637;28;20914;-42
2023/02/18 09:55:29;;;;;;;7.47;3.00;;;10.30;99.90;;;;;;5059777;28;20017;-43
2023/02/18 09:58:04;;;;;;;10.93;3.30;;;10.30;99.90;;;;;;5059874;28;20024;-43
2023/02/18 10:00:42;;;;;;;14.52;3.55;;;10.30;99.90;;;;;;5060154;28;20475;-43
2023/02/18 10:03:15;;;;;;;13.18;3.47;;;10.30;99.90;;;;;;5059464;28;20028;-43
2023/02/18 10:05:59;;;;;;;11.43;3.50;;;10.30;99.90;;;;;;5059625;28;20071;-43
2023/02/18 10:08:29;;;;;;;10.93;3.20;;;10.30;99.90;;;;;;5058895;28;20866;-42
2023/02/18 10:10:54;;;;;;;13.27;2.80;;;10.30;99.90;;;;;;5059268;28;20024;-43
2023/02/18 10:13:24;;;;;;;9.27;2.75;;;10.40;99.90;;;;;;5059693;28;20040;-42
2023/02/18 10:15:51;;;;;;;10.93;2.85;;;10.40;99.90;;;;;;5055499;28;20057;-42
2023/02/18 10:18:31;;;;;;;10.70;2.65;;;10.40;99.90;;;;;;5060238;28;20472;-43
2023/02/18 10:21:05;;;;;;;10.07;2.72;;;10.40;99.90;;;;;;5055513;28;20696;-43
2023/02/18 10:23:34;;;;;;;10.77;2.80;;;10.40;99.90;;;;;;5059343;28;20029;-43
2023/02/18 10:26:06;;;;;;;13.85;2.90;;;10.40;99.90;;;;;;5059374;28;20024;-43
2023/02/18 10:28:33;;;;;;;8.20;3.33;;;10.40;99.90;;;;;;5060203;28;20029;-43
2023/02/18 10:31:08;;;;;;;8.98;2.50;;;10.40;99.90;;;;;;5058821;28;20045;-43
2023/02/18 10:33:35;;;;;;;7.78;2.58;;;10.40;99.90;;;;;;5058459;28;20037;-45
2023/02/18 10:36:03;;;;;;;10.77;3.22;;;10.40;99.90;;;;;;5059503;28;20024;-43
2023/02/18 10:38:36;;;;;;;15.32;2.92;;;10.40;99.90;;;;;;5059375;28;20016;-43
2023/02/18 10:41:26;;;;;;;13.02;2.75;;;10.40;99.90;;;;;;5058437;28;20552;-43
2023/02/18 10:44:14;;;;;;;7.90;2.50;;;10.40;99.90;;;;;;5063119;28;20123;-43
2023/02/18 10:47:05;;;;;;;8.32;2.80;;;10.40;99.90;;;;;;5062477;28;20028;-43
2023/02/18 10:49:39;;;;;;;11.50;2.75;;;10.40;99.90;;;;;;5064137;28;20471;-43
2023/02/18 10:52:12;;;;;;;7.97;2.58;;;10.40;99.90;;;;;;5059738;28;20154;-43
2023/02/18 10:55:09;;;;;;;9.18;2.30;;;10.40;99.90;;;;;;5063292;28;20024;-42
2023/02/18 10:57:49;;;;;;;10.00;2.45;;;10.40;99.90;;;;;;5054078;28;20028;-43
2023/02/18 11:00:24;;;;;;;9.60;2.58;;;10.40;99.90;;;;;;5063551;28;20031;-43
2023/02/18 11:03:17;;;;;;;10.43;3.20;;;10.40;99.90;;;;;;5052468;28;20016;-42
2023/02/18 11:05:43;;;;;;;;;;;10.40;99.90;;;;;;5062290;28;20051;-42
2023/02/18 11:08:15;;;;;;;9.70;2.75;;;10.40;99.90;;;;;;5063323;28;19918;-42
2023/02/18 11:10:44;;;;;;;8.60;3.00;;;10.40;99.90;;;;;;5063069;28;20025;-43
2023/02/18 11:13:13;;;;;;;11.05;2.95;;;10.40;99.90;;;;;;5051732;28;20388;-42
2023/02/18 11:16:00;;;;;;;16.42;4.55;;;10.50;99.90;;;;;;5063022;28;20217;-42
2023/02/18 11:18:28;;;;;;;13.70;3.65;;;10.50;99.90;;;;;;5052887;28;20023;-43
2023/02/18 11:21:00;;;;;;;6.38;3.13;;;10.50;99.90;;;;;;5063046;28;20040;-43
2023/02/18 11:23:26;;;;;;;9.88;3.78;;;10.60;99.90;;;;;;5063563;28;20021;-44
2023/02/18 11:26:05;;;;;;;12.18;3.63;;;10.60;99.90;;;;;;5062869;28;20024;-44
2023/02/18 11:28:46;;;;;;;12.57;4.22;;;10.60;99.90;;;;;;5063230;28;20055;-43
2023/02/18 11:31:42;;;;;;;14.00;3.85;;;10.70;99.90;;;;;;5063117;28;20040;-44
2023/02/18 11:34:28;;;;;;;13.25;4.38;;;10.70;99.90;;;;;;5054528;28;20020;-44
2023/02/18 11:36:54;;;;;;;12.00;3.90;;;10.80;99.90;;;;;;5062897;28;20055;-43
2023/02/18 11:39:27;;;;;;;11.85;3.88;;;10.80;99.90;;;;;;5063695;28;20181;-43
2023/02/18 11:41:58;;;;;;;11.85;3.78;;;10.90;99.90;;;;;;5062430;28;20036;-44
2023/02/18 11:44:32;;;;;;;11.40;3.92;;;10.90;99.90;;;;;;5062837;28;20477;-44
2023/02/18 11:47:05;;;;;;;11.73;3.88;;;10.90;99.90;;;;;;5061856;28;20135;-43
2023/02/18 11:49:33;;;;;;;12.52;4.15;;;10.90;99.90;;;;;;5062445;28;20125;-43
2023/02/18 11:52:23;;;;;;;11.32;4.30;;;11.00;99.90;;;;;;5062155;28;20039;-43
2023/02/18 11:55:23;;;;;;;7.45;3.47;;;11.00;99.90;;;;;;5052815;28;20021;-43
2023/02/18 11:57:59;;;;;;;12.48;4.60;;;11.10;99.90;;;;;;5061689;28;20029;-43
2023/02/18 12:00:44;;;;;;;9.40;3.80;;;11.10;99.90;;;;;;5062601;28;20020;-43
2023/02/18 12:03:25;;;;;;;16.95;4.43;;;11.10;99.90;;;;;;5062461;28;20071;-44
2023/02/18 12:05:51;;;;;;;8.43;3.83;;;11.10;99.90;;;;;;5061652;28;20972;-43
2023/02/18 12:08:22;;;;;;;14.43;5.07;;;11.10;99.90;;;;;;5062312;28;20016;-43
2023/02/18 12:10:54;;;;;;;7.85;3.95;;;11.20;99.90;;;;;;5062507;28;20064;-43
2023/02/18 12:13:33;;;;;;;13.13;4.32;;;11.30;99.90;;;;;;5062983;28;20410;-43
2023/02/18 12:16:56;;;;;;;14.05;5.60;;;11.30;99.90;;;;;;5062421;28;20040;-43
2023/02/18 12:19:41;;;;;;;13.68;4.53;;;11.30;99.90;;;;;;5027901;28;20066;-44
2023/02/18 12:22:25;;;;;;;12.32;4.93;;;11.30;99.90;;;;;;5061602;28;20039;-43
2023/02/18 12:25:28;;;;;;;12.88;5.05;;;11.30;99.90;;;;;;5061664;28;20032;-42
2023/02/18 12:28:31;;;;;;;14.65;5.72;;;11.30;99.90;;;;;;5061736;28;20638;-43
2023/02/18 12:31:15;;;;;;;15.07;5.53;;;11.20;99.90;;;;;;5052704;28;20036;-43
2023/02/18 12:34:05;;;;;;;14.30;5.68;;;11.10;99.90;;;;;;5061255;28;20122;-43
2023/02/18 12:36:48;;;;;;;15.23;5.53;;;11.10;99.90;;;;;;5061091;28;20028;-43
2023/02/18 12:39:31;;;;;;;17.73;6.45;;;11.10;99.90;;;;;;5061662;28;20032;-43
2023/02/18 12:42:28;;;;;;;16.45;6.00;;;11.10;99.90;;;;;;5061105;28;20047;-43
2023/02/18 12:45:12;;;;;;;16.05;6.00;;;11.20;99.90;;;;;;5059847;28;20059;-43
2023/02/18 12:48:17;;;;;;;10.25;5.75;;;11.20;99.90;;;;;;5041383;28;20658;-44
2023/02/18 12:50:55;;;;;;;15.10;5.30;;;11.30;99.90;;;;;;5060463;28;20048;-43
2023/02/18 12:53:38;;;;;;;12.75;5.70;;;11.30;99.90;;;;;;5062480;28;20032;-43
2023/02/18 12:56:36;;;;;;;12.02;4.95;;;11.30;99.90;;;;;;5061330;28;20024;-44